createdAt,value
2019-03-25T00:00:26.595Z,68.43
2019-03-25T00:01:26.610Z,68.24
2019-03-25T00:02:26.630Z,68.33
2019-03-25T00:03:26.960Z,68.33
2019-03-25T00:04:26.668Z,68.15
2019-03-25T00:05:26.685Z,68.43
2019-03-25T00:06:26.969Z,68.43
2019-03-25T00:07:26.983Z,68.24
2019-03-25T00:08:26.738Z,68.43
2019-03-25T00:09:26.756Z,68.24
2019-03-25T00:10:27.039Z,68.62
2019-03-25T00:11:27.054Z,68.43
2019-03-25T00:12:27.075Z,68.33
2019-03-25T00:13:26.831Z,68.33
2019-03-25T00:14:27.112Z,68.52
2019-03-25T00:15:26.869Z,68.62
2019-03-25T00:16:26.884Z,68.43
2019-03-25T00:17:26.902Z,68.33
2019-03-25T00:18:26.940Z,68.43
2019-03-25T00:19:26.938Z,68.43
2019-03-25T00:20:26.960Z,68.43
2019-03-25T00:21:26.977Z,68.52
2019-03-25T00:22:26.996Z,68.33
2019-03-25T00:23:27.277Z,68.52
2019-03-25T00:24:37.804Z,68.43
2019-03-25T00:25:27.314Z,68.43
2019-03-25T00:26:27.331Z,68.52
2019-03-25T00:27:27.351Z,68.43
2019-03-25T00:28:27.364Z,68.52
2019-03-25T00:29:27.388Z,68.43
2019-03-25T00:30:27.403Z,68.43
2019-03-25T00:31:27.419Z,68.52
2019-03-25T00:32:27.205Z,68.43
2019-03-25T00:33:27.462Z,68.62
2019-03-25T00:34:27.216Z,68.71
2019-03-25T00:35:27.495Z,68.52
2019-03-25T00:36:27.515Z,68.52
2019-03-25T00:37:27.269Z,68.43
2019-03-25T00:38:27.295Z,68.33
2019-03-25T00:39:27.307Z,68.43
2019-03-25T00:40:27.590Z,68.43
2019-03-25T00:41:27.343Z,68.52
2019-03-25T00:42:27.620Z,68.33
2019-03-25T00:43:27.653Z,68.43
2019-03-25T00:44:27.397Z,68.43
2019-03-25T00:45:27.693Z,68.33
2019-03-25T00:46:27.699Z,68.71
2019-03-25T00:47:27.712Z,68.43
2019-03-25T00:48:27.479Z,68.24
2019-03-25T00:49:27.535Z,68.43
2019-03-25T00:50:27.508Z,68.43
2019-03-25T00:51:27.792Z,68.43
2019-03-25T00:52:27.809Z,68.33
2019-03-25T00:53:27.831Z,68.43
2019-03-25T00:54:27.854Z,68.15
2019-03-25T00:55:27.858Z,68.43
2019-03-25T00:56:27.654Z,68.43
2019-03-25T00:57:27.916Z,68.52
2019-03-25T00:58:27.919Z,68.43
2019-03-25T00:59:27.668Z,68.71
2019-03-25T01:00:27.952Z,68.62
2019-03-25T01:01:27.975Z,68.52
2019-03-25T01:02:27.731Z,68.24
2019-03-25T01:03:28.007Z,68.43
2019-03-25T01:04:28.044Z,68.81
2019-03-25T01:05:27.782Z,69
2019-03-25T01:06:27.799Z,68.33
2019-03-25T01:07:28.084Z,68.9
2019-03-25T01:08:28.095Z,68.71
2019-03-25T01:09:28.114Z,68.52
2019-03-25T01:10:27.873Z,68.9
2019-03-25T01:11:27.896Z,68.43
2019-03-25T01:12:27.909Z,68.71
2019-03-25T01:13:27.928Z,68.52
2019-03-25T01:14:28.206Z,68.52
2019-03-25T01:15:27.963Z,68.62
2019-03-25T01:16:27.985Z,68.52
2019-03-25T01:17:27.999Z,68.52
2019-03-25T01:18:28.017Z,69
2019-03-25T01:19:28.037Z,69
2019-03-25T01:20:28.274Z,69
2019-03-25T01:21:28.075Z,68.81
2019-03-25T01:22:28.357Z,68.52
2019-03-25T01:23:28.383Z,69
2019-03-25T01:24:28.128Z,68.71
2019-03-25T01:25:28.412Z,68.81
2019-03-25T01:26:28.430Z,68.9
2019-03-25T01:27:28.444Z,68.62
2019-03-25T01:28:28.466Z,68.71
2019-03-25T01:29:28.219Z,68.62
2019-03-25T01:30:28.498Z,68.71
2019-03-25T01:31:28.517Z,68.71
2019-03-25T01:32:28.539Z,68.71
2019-03-25T01:33:28.291Z,68.43
2019-03-25T01:34:28.573Z,68.62
2019-03-25T01:35:28.591Z,68.62
2019-03-25T01:36:28.350Z,68.52
2019-03-25T01:37:28.625Z,68.81
2019-03-25T01:38:28.382Z,68.62
2019-03-25T01:39:28.403Z,68.33
2019-03-25T01:40:28.421Z,68.52
2019-03-25T01:41:28.441Z,68.71
2019-03-25T01:42:28.460Z,68.9
2019-03-25T01:43:28.474Z,68.9
2019-03-25T01:44:28.495Z,69
2019-03-25T01:45:28.510Z,68.52
2019-03-25T01:46:28.526Z,68.52
2019-03-25T01:47:28.549Z,68.52
2019-03-25T01:48:28.567Z,68.71
2019-03-25T01:49:28.582Z,68.9
2019-03-25T01:50:28.865Z,68.71
2019-03-25T01:51:28.883Z,68.62
2019-03-25T01:52:28.641Z,68.62
2019-03-25T01:53:28.658Z,68.52
2019-03-25T01:54:28.673Z,68.9
2019-03-25T01:55:28.967Z,68.62
2019-03-25T01:56:28.974Z,68.43
2019-03-25T01:57:28.992Z,68.71
2019-03-25T01:58:29.011Z,69.1
2019-03-25T01:59:29.030Z,68.81
2019-03-25T02:00:29.047Z,68.9
2019-03-25T02:01:29.068Z,68.62
2019-03-25T02:02:29.084Z,68.62
2019-03-25T02:03:29.105Z,68.52
2019-03-25T02:04:29.120Z,68.52
2019-03-25T02:05:29.138Z,69
2019-03-25T02:06:29.159Z,68.71
2019-03-25T02:07:29.178Z,68.52
2019-03-25T02:08:29.195Z,68.62
2019-03-25T02:09:29.213Z,68.9
2019-03-25T02:10:28.972Z,68.62
2019-03-25T02:11:28.985Z,69
2019-03-25T02:12:29.008Z,69
2019-03-25T02:13:29.291Z,68.9
2019-03-25T02:14:29.042Z,69
2019-03-25T02:15:29.328Z,68.81
2019-03-25T02:16:29.081Z,68.71
2019-03-25T02:17:29.097Z,68.52
2019-03-25T02:18:29.381Z,68.81
2019-03-25T02:19:29.135Z,68.81
2019-03-25T02:20:29.554Z,68.62
2019-03-25T02:21:29.171Z,68.9
2019-03-25T02:22:29.565Z,68.43
2019-03-25T02:23:29.214Z,69
2019-03-25T02:24:29.489Z,68.52
2019-03-25T02:25:29.502Z,68.9
2019-03-25T02:26:29.524Z,69
2019-03-25T02:27:29.282Z,68.43
2019-03-25T02:28:29.565Z,68.43
2019-03-25T02:29:29.321Z,68.24
2019-03-25T02:30:29.601Z,68.52
2019-03-25T02:31:29.618Z,68.71
2019-03-25T02:32:29.644Z,68.52
2019-03-25T02:33:29.665Z,68.52
2019-03-25T02:34:29.674Z,68.62
2019-03-25T02:35:29.687Z,68.62
2019-03-25T02:36:29.715Z,68.71
2019-03-25T02:37:29.734Z,68.71
2019-03-25T02:38:29.747Z,68.81
2019-03-25T02:39:29.762Z,68.9
2019-03-25T02:40:29.521Z,68.52
2019-03-25T02:41:29.534Z,68.9
2019-03-25T02:42:29.635Z,68.62
2019-03-25T02:43:29.572Z,68.52
2019-03-25T02:44:29.594Z,68.62
2019-03-25T02:45:29.605Z,68.52
2019-03-25T02:46:29.628Z,69.1
2019-03-25T02:47:29.662Z,68.71
2019-03-25T02:48:29.663Z,68.62
2019-03-25T02:49:29.951Z,68.71
2019-03-25T02:50:29.965Z,68.71
2019-03-25T02:51:29.985Z,68.81
2019-03-25T02:52:30.001Z,68.9
2019-03-25T02:53:29.757Z,68.43
2019-03-25T02:54:29.774Z,68.71
2019-03-25T02:55:43.884Z,68.81
2019-03-25T02:56:29.808Z,68.81
2019-03-25T02:57:30.091Z,68.81
2019-03-25T02:58:29.855Z,68.9
2019-03-25T02:59:30.243Z,68.62
2019-03-25T03:00:29.883Z,68.71
2019-03-25T03:01:30.278Z,68.81
2019-03-25T03:02:30.182Z,68.9
2019-03-25T03:03:29.937Z,68.9
2019-03-25T03:04:30.271Z,68.81
2019-03-25T03:05:29.990Z,68.43
2019-03-25T03:06:29.997Z,68.9
2019-03-25T03:07:30.084Z,68.52
2019-03-25T03:08:30.028Z,68.81
2019-03-25T03:09:30.306Z,68.81
2019-03-25T03:10:30.344Z,68.4
2019-03-25T03:11:30.084Z,68.43
2019-03-25T03:12:30.104Z,68.33
2019-03-25T03:13:30.131Z,68.49
2019-03-25T03:14:30.141Z,69.1
2019-03-25T03:15:30.252Z,68.15
2019-03-25T03:16:30.432Z,68.11
2019-03-25T03:17:30.450Z,68.15
2019-03-25T03:18:30.477Z,68.11
2019-03-25T03:19:30.274Z,68.15
2019-03-25T03:20:30.511Z,68.9
2019-03-25T03:21:30.261Z,68.77
2019-03-25T03:22:30.539Z,68.21
2019-03-25T03:23:30.298Z,68.49
2019-03-25T03:24:30.329Z,68.49
2019-03-25T03:25:30.342Z,68.68
2019-03-25T03:26:30.356Z,68.81
2019-03-25T03:27:32.155Z,68.49
2019-03-25T03:28:30.659Z,68.68
2019-03-25T03:29:30.667Z,68.52
2019-03-25T03:30:30.695Z,68.59
2019-03-25T03:31:30.447Z,69.15
2019-03-25T03:32:30.462Z,68.59
2019-03-25T03:33:30.582Z,69.15
2019-03-25T03:34:30.507Z,69.15
2019-03-25T03:35:30.839Z,69
2019-03-25T03:36:30.797Z,69.25
2019-03-25T03:37:30.565Z,68.4
2019-03-25T03:38:30.573Z,68.68
2019-03-25T03:39:30.590Z,69.06
2019-03-25T03:40:30.621Z,69.06
2019-03-25T03:41:30.883Z,69.06
2019-03-25T03:42:30.902Z,68.77
2019-03-25T03:43:30.936Z,69.19
2019-03-25T03:44:30.958Z,69.06
2019-03-25T03:45:30.697Z,69.25
2019-03-25T03:46:30.978Z,69.25
2019-03-25T03:47:30.756Z,69.06
2019-03-25T03:48:31.019Z,69.06
2019-03-25T03:49:31.034Z,69.06
2019-03-25T03:50:31.061Z,69.06
2019-03-25T03:51:30.807Z,69.06
2019-03-25T03:52:31.083Z,68.96
2019-03-25T03:53:30.848Z,68.96
2019-03-25T03:54:31.137Z,69.06
2019-03-25T03:55:30.876Z,68.96
2019-03-25T03:56:31.269Z,69.06
2019-03-25T03:57:31.279Z,69.06
2019-03-25T03:58:30.938Z,69.1
2019-03-25T03:59:31.215Z,68.96
2019-03-25T04:00:30.971Z,68.96
2019-03-25T04:01:30.994Z,68.96
2019-03-25T04:02:31.273Z,68.87
2019-03-25T04:03:31.302Z,68.96
2019-03-25T04:04:31.040Z,68.96
2019-03-25T04:05:31.405Z,68.96
2019-03-25T04:06:31.098Z,68.77
2019-03-25T04:07:31.354Z,68.77
2019-03-25T04:08:31.117Z,68.77
2019-03-25T04:09:31.132Z,68.87
2019-03-25T04:10:31.257Z,68.96
2019-03-25T04:11:31.164Z,69.06
2019-03-25T04:12:31.447Z,68.87
2019-03-25T04:13:31.464Z,68.96
2019-03-25T04:14:31.484Z,69.06
2019-03-25T04:15:31.242Z,69.06
2019-03-25T04:16:31.523Z,69.15
2019-03-25T04:17:31.554Z,68.96
2019-03-25T04:18:31.335Z,69.15
2019-03-25T04:19:31.585Z,69.15
2019-03-25T04:20:31.599Z,69.15
2019-03-25T04:21:31.344Z,69.54
2019-03-25T04:22:31.380Z,69.25
2019-03-25T04:23:31.641Z,69.73
2019-03-25T04:24:31.668Z,69.35
2019-03-25T04:25:31.424Z,69.44
2019-03-25T04:26:31.932Z,69.25
2019-03-25T04:27:31.758Z,69.35
2019-03-25T04:28:31.484Z,69.35
2019-03-25T04:29:31.798Z,69.44
2019-03-25T04:30:31.774Z,69.25
2019-03-25T04:31:31.797Z,69.44
2019-03-25T04:32:31.803Z,69.15
2019-03-25T04:33:31.824Z,69.25
2019-03-25T04:34:31.855Z,69.44
2019-03-25T04:35:31.598Z,69.44
2019-03-25T04:36:31.888Z,69.44
2019-03-25T04:37:31.896Z,69.82
2019-03-25T04:38:31.921Z,69.82
2019-03-25T04:39:31.671Z,69.44
2019-03-25T04:40:31.950Z,69.92
2019-03-25T04:41:31.977Z,70.01
2019-03-25T04:42:31.727Z,69.82
2019-03-25T04:43:32.016Z,69.73
2019-03-25T04:44:32.023Z,69.82
2019-03-25T04:45:32.039Z,69.82
2019-03-25T04:46:32.061Z,69.82
2019-03-25T04:47:31.817Z,69.82
2019-03-25T04:48:31.836Z,70.01
2019-03-25T04:49:31.849Z,69.54
2019-03-25T04:50:31.869Z,69.44
2019-03-25T04:51:32.145Z,69.63
2019-03-25T04:52:32.166Z,69.54
2019-03-25T04:53:32.187Z,69.63
2019-03-25T04:54:32.203Z,69.73
2019-03-25T04:55:32.226Z,69.73
2019-03-25T04:56:42.018Z,69.82
2019-03-25T04:57:32.270Z,69.63
2019-03-25T04:58:32.273Z,69.44
2019-03-25T04:59:32.045Z,69.54
2019-03-25T05:00:32.313Z,69.63
2019-03-25T05:01:32.328Z,69.73
2019-03-25T05:02:32.362Z,69.63
2019-03-25T05:03:32.372Z,69.63
2019-03-25T05:04:32.386Z,69.92
2019-03-25T05:05:32.403Z,69.92
2019-03-25T05:06:32.157Z,70.01
2019-03-25T05:07:32.174Z,69.92
2019-03-25T05:08:32.218Z,70.2
2019-03-25T05:09:32.212Z,70.01
2019-03-25T05:10:32.792Z,70.3
2019-03-25T05:11:33.447Z,70.3
2019-03-25T05:12:32.273Z,70.3
2019-03-25T05:13:32.283Z,70.2
2019-03-25T05:14:32.304Z,70.3
2019-03-25T05:15:32.587Z,70.2
2019-03-25T05:16:32.613Z,70.2
2019-03-25T05:17:32.359Z,70.2
2019-03-25T05:18:32.377Z,70.2
2019-03-25T05:19:32.393Z,70.2
2019-03-25T05:20:32.411Z,70.2
2019-03-25T05:21:32.706Z,70.01
2019-03-25T05:22:32.707Z,70.01
2019-03-25T05:23:32.833Z,70.2
2019-03-25T05:24:32.481Z,70.1
2019-03-25T05:25:32.561Z,70.1
2019-03-25T05:26:32.571Z,70.2
2019-03-25T05:27:32.798Z,70.3
2019-03-25T05:28:32.555Z,70.1
2019-03-25T05:29:32.840Z,70.3
2019-03-25T05:30:32.593Z,70.2
2019-03-25T05:31:32.616Z,70.1
2019-03-25T05:32:32.891Z,70.1
2019-03-25T05:33:32.651Z,70.1
2019-03-25T05:34:32.925Z,69.92
2019-03-25T05:35:32.682Z,70.1
2019-03-25T05:36:32.965Z,69.92
2019-03-25T05:37:32.716Z,69.92
2019-03-25T05:38:32.759Z,70.2
2019-03-25T05:39:33.017Z,70.39
2019-03-25T05:40:33.078Z,70.1
2019-03-25T05:41:33.058Z,69.92
2019-03-25T05:42:33.070Z,69.82
2019-03-25T05:43:32.827Z,70.3
2019-03-25T05:44:32.844Z,69.82
2019-03-25T05:45:32.863Z,69.82
2019-03-25T05:46:33.148Z,70.01
2019-03-25T05:47:33.162Z,69.82
2019-03-25T05:48:32.919Z,69.92
2019-03-25T05:49:32.936Z,69.82
2019-03-25T05:50:32.958Z,69.82
2019-03-25T05:51:33.235Z,69.82
2019-03-25T05:52:32.989Z,69.82
2019-03-25T05:53:33.271Z,70.01
2019-03-25T05:54:33.290Z,70.2
2019-03-25T05:55:33.308Z,70.01
2019-03-25T05:56:33.070Z,70.2
2019-03-25T05:57:33.340Z,70.3
2019-03-25T05:58:33.366Z,69.92
2019-03-25T05:59:33.119Z,70.01
2019-03-25T06:00:33.132Z,70.01
2019-03-25T06:01:33.161Z,69.73
2019-03-25T06:02:33.170Z,69.82
2019-03-25T06:03:33.452Z,70.1
2019-03-25T06:04:33.206Z,69.82
2019-03-25T06:05:33.228Z,69.82
2019-03-25T06:06:33.244Z,69.92
2019-03-25T06:07:33.525Z,69.82
2019-03-25T06:08:33.548Z,69.82
2019-03-25T06:09:33.298Z,70.2
2019-03-25T06:10:33.415Z,69.73
2019-03-25T06:11:33.692Z,70.2
2019-03-25T06:12:33.347Z,69.82
2019-03-25T06:13:33.651Z,69.92
2019-03-25T06:14:33.704Z,70.1
2019-03-25T06:15:33.414Z,70.39
2019-03-25T06:16:33.686Z,70.1
2019-03-25T06:17:33.700Z,70.1
2019-03-25T06:18:33.457Z,70.1
2019-03-25T06:19:33.482Z,70.2
2019-03-25T06:20:33.507Z,70.2
2019-03-25T06:21:33.510Z,70.1
2019-03-25T06:22:33.531Z,70.01
2019-03-25T06:23:33.551Z,70.3
2019-03-25T06:24:33.566Z,70.01
2019-03-25T06:25:33.586Z,69.92
2019-03-25T06:26:33.601Z,69.82
2019-03-25T06:27:33.887Z,69.63
2019-03-25T06:28:33.640Z,69.44
2019-03-25T06:29:34.327Z,69.73
2019-03-25T06:30:33.934Z,69.63
2019-03-25T06:31:33.694Z,69.44
2019-03-25T06:32:33.973Z,69.82
2019-03-25T06:33:33.733Z,70.01
2019-03-25T06:34:34.006Z,69.44
2019-03-25T06:35:34.025Z,69.73
2019-03-25T06:36:33.781Z,69.73
2019-03-25T06:37:33.800Z,69.73
2019-03-25T06:38:34.085Z,69.73
2019-03-25T06:39:34.096Z,69.73
2019-03-25T06:40:34.118Z,69.82
2019-03-25T06:41:33.875Z,69.73
2019-03-25T06:42:33.889Z,69.82
2019-03-25T06:43:34.169Z,69.73
2019-03-25T06:44:33.927Z,70.1
2019-03-25T06:45:33.941Z,69.92
2019-03-25T06:46:33.960Z,70.1
2019-03-25T06:47:34.244Z,69.44
2019-03-25T06:48:34.279Z,69.54
2019-03-25T06:49:34.016Z,69.73
2019-03-25T06:50:34.035Z,69.63
2019-03-25T06:51:34.051Z,69.63
2019-03-25T06:52:34.336Z,69.82
2019-03-25T06:53:34.349Z,69.63
2019-03-25T06:54:34.107Z,69.73
2019-03-25T06:55:34.125Z,70.01
2019-03-25T06:56:34.407Z,69.92
2019-03-25T06:57:34.422Z,69.82
2019-03-25T06:58:34.176Z,69.92
2019-03-25T06:59:34.196Z,69.82
2019-03-25T07:00:34.216Z,69.63
2019-03-25T07:01:34.496Z,69.82
2019-03-25T07:02:34.249Z,69.63
2019-03-25T07:03:34.533Z,69.82
2019-03-25T07:04:34.286Z,69.73
2019-03-25T07:05:34.310Z,69.92
2019-03-25T07:06:34.420Z,70.1
2019-03-25T07:07:34.602Z,69.44
2019-03-25T07:08:34.362Z,70.1
2019-03-25T07:09:34.374Z,69.73
2019-03-25T07:10:34.656Z,69.82
2019-03-25T07:11:34.675Z,69.82
2019-03-25T07:12:34.699Z,69.73
2019-03-25T07:13:34.448Z,69.73
2019-03-25T07:14:34.474Z,69.82
2019-03-25T07:15:34.747Z,70.2
2019-03-25T07:16:34.768Z,69.63
2019-03-25T07:17:34.524Z,69.73
2019-03-25T07:18:34.534Z,69.92
2019-03-25T07:19:34.818Z,69.54
2019-03-25T07:20:34.839Z,69.54
2019-03-25T07:21:34.859Z,69.44
2019-03-25T07:22:34.609Z,69.44
2019-03-25T07:23:34.632Z,69.82
2019-03-25T07:24:34.910Z,69.44
2019-03-25T07:25:34.667Z,69.73
2019-03-25T07:26:34.681Z,69.54
2019-03-25T07:27:39.386Z,69.73
2019-03-25T07:28:34.721Z,69.63
2019-03-25T07:29:34.738Z,69.44
2019-03-25T07:30:35.022Z,69.92
2019-03-25T07:31:34.771Z,69.73
2019-03-25T07:32:34.791Z,69.92
2019-03-25T07:33:35.072Z,69.82
2019-03-25T07:34:34.829Z,69.54
2019-03-25T07:35:35.105Z,69.73
2019-03-25T07:36:35.124Z,69.54
2019-03-25T07:37:35.147Z,69.76
2019-03-25T07:38:34.907Z,69.73
2019-03-25T07:39:34.923Z,69.73
2019-03-25T07:40:34.935Z,69.67
2019-03-25T07:41:34.952Z,69.76
2019-03-25T07:42:35.236Z,69.85
2019-03-25T07:43:34.993Z,69.92
2019-03-25T07:44:35.009Z,69.85
2019-03-25T07:45:35.035Z,69.82
2019-03-25T07:46:35.305Z,69.73
2019-03-25T07:47:35.327Z,69.92
2019-03-25T07:48:35.342Z,69.92
2019-03-25T07:49:35.361Z,69.82
2019-03-25T07:50:35.116Z,69.73
2019-03-25T07:51:35.136Z,69.82
2019-03-25T07:52:35.153Z,69.92
2019-03-25T07:53:35.442Z,69.82
2019-03-25T07:54:35.451Z,69.54
2019-03-25T07:55:35.503Z,69.63
2019-03-25T07:56:35.501Z,69.73
2019-03-25T07:57:35.269Z,69.63
2019-03-25T07:58:35.263Z,69.63
2019-03-25T07:59:35.279Z,69.48
2019-03-25T08:00:35.336Z,69.76
2019-03-25T08:01:35.603Z,69.82
2019-03-25T08:02:35.619Z,69.82
2019-03-25T08:03:35.611Z,69.82
2019-03-25T08:04:35.634Z,69.85
2019-03-25T08:05:35.649Z,69.82
2019-03-25T08:06:35.669Z,69.82
2019-03-25T08:07:35.438Z,69.85
2019-03-25T08:08:35.711Z,69.85
2019-03-25T08:09:35.759Z,69.95
2019-03-25T08:10:35.897Z,69.76
2019-03-25T08:11:35.813Z,69.76
2019-03-25T08:12:35.825Z,69.76
2019-03-25T08:13:35.816Z,69.76
2019-03-25T08:14:35.835Z,69.76
2019-03-25T08:15:35.650Z,69.48
2019-03-25T08:16:35.588Z,69.85
2019-03-25T08:17:35.605Z,69.85
2019-03-25T08:18:35.625Z,69.67
2019-03-25T08:19:35.643Z,69.38
2019-03-25T08:20:35.662Z,69.48
2019-03-25T08:21:35.682Z,69.76
2019-03-25T08:22:35.699Z,69.29
2019-03-25T08:23:35.979Z,69.48
2019-03-25T08:24:35.997Z,69.29
2019-03-25T08:25:36.018Z,69.38
2019-03-25T08:26:36.034Z,69.48
2019-03-25T08:27:36.051Z,69.67
2019-03-25T08:28:35.810Z,69.38
2019-03-25T08:29:35.830Z,69.85
2019-03-25T08:30:35.846Z,69.38
2019-03-25T08:31:35.863Z,69.95
2019-03-25T08:32:35.883Z,69.85
2019-03-25T08:33:35.899Z,69.76
2019-03-25T08:34:36.182Z,69.76
2019-03-25T08:35:36.202Z,69.95
2019-03-25T08:36:36.225Z,69.85
2019-03-25T08:37:36.236Z,69.85
2019-03-25T08:38:35.993Z,69.95
2019-03-25T08:39:36.011Z,69.38
2019-03-25T08:40:36.325Z,69.48
2019-03-25T08:41:36.050Z,69.29
2019-03-25T08:42:36.337Z,69.38
2019-03-25T08:43:36.346Z,69.19
2019-03-25T08:44:36.365Z,69.29
2019-03-25T08:45:36.381Z,69.29
2019-03-25T08:46:36.138Z,69.19
2019-03-25T08:47:36.159Z,69.19
2019-03-25T08:48:36.175Z,69.48
2019-03-25T08:49:36.201Z,69.76
2019-03-25T08:50:36.210Z,69.19
2019-03-25T08:51:36.232Z,69.38
2019-03-25T08:52:36.250Z,69.76
2019-03-25T08:53:36.529Z,69.95
2019-03-25T08:54:37.889Z,69.76
2019-03-25T08:55:36.566Z,69.67
2019-03-25T08:56:36.585Z,69.67
2019-03-25T08:57:36.608Z,69.48
2019-03-25T08:58:36.637Z,69.67
2019-03-25T08:59:36.648Z,70.33
2019-03-25T09:00:36.409Z,70.14
2019-03-25T09:01:36.675Z,70.14
2019-03-25T09:02:36.431Z,70.14
2019-03-25T09:03:36.449Z,70.33
2019-03-25T09:04:36.471Z,70.14
2019-03-25T09:05:36.752Z,70.33
2019-03-25T09:06:36.768Z,70.05
2019-03-25T09:07:36.523Z,70.14
2019-03-25T09:08:36.546Z,70.14
2019-03-25T09:09:36.559Z,70.24
2019-03-25T09:10:36.581Z,70.24
2019-03-25T09:11:36.596Z,70.14
2019-03-25T09:12:36.616Z,70.05
2019-03-25T09:13:36.634Z,69.57
2019-03-25T09:14:36.920Z,69.38
2019-03-25T09:15:36.667Z,69.48
2019-03-25T09:16:36.688Z,69.67
2019-03-25T09:17:36.976Z,69.48
2019-03-25T09:18:36.986Z,69.76
2019-03-25T09:19:36.743Z,69.48
2019-03-25T09:20:36.761Z,69.48
2019-03-25T09:21:36.779Z,69.48
2019-03-25T09:22:37.071Z,69.29
2019-03-25T09:23:37.137Z,69.38
2019-03-25T09:24:37.096Z,69.48
2019-03-25T09:25:37.119Z,69.19
2019-03-25T09:26:36.879Z,69.38
2019-03-25T09:27:36.891Z,69.48
2019-03-25T09:28:36.907Z,69.19
2019-03-25T09:29:36.924Z,69.38
2019-03-25T09:30:37.213Z,69.29
2019-03-25T09:31:39.128Z,69.48
2019-03-25T09:32:36.978Z,69.48
2019-03-25T09:33:37.268Z,69.38
2019-03-25T09:34:37.017Z,69.29
2019-03-25T09:35:37.037Z,69.29
2019-03-25T09:36:37.057Z,69.38
2019-03-25T09:37:37.361Z,69.19
2019-03-25T09:38:37.352Z,69.76
2019-03-25T09:39:37.109Z,69.38
2019-03-25T09:40:37.140Z,69.76
2019-03-25T09:41:37.151Z,69.67
2019-03-25T09:42:37.229Z,69.85
2019-03-25T09:43:37.447Z,69.57
2019-03-25T09:44:37.203Z,69.38
2019-03-25T09:45:37.225Z,69.38
2019-03-25T09:46:37.238Z,69.85
2019-03-25T09:47:39.957Z,69.57
2019-03-25T09:48:37.540Z,69.38
2019-03-25T09:49:37.559Z,69.38
2019-03-25T09:50:37.313Z,69.67
2019-03-25T09:51:37.598Z,69.1
2019-03-25T09:52:41.102Z,69.1
2019-03-25T09:53:37.643Z,68.81
2019-03-25T09:54:37.387Z,68.81
2019-03-25T09:55:37.668Z,69.04
2019-03-25T09:56:37.425Z,68.94
2019-03-25T09:57:37.714Z,68.84
2019-03-25T09:58:39.105Z,68.84
2019-03-25T09:59:37.480Z,69.04
2019-03-25T10:00:37.760Z,68.84
2019-03-25T10:01:37.515Z,68.84
2019-03-25T10:02:37.536Z,68.94
2019-03-25T10:03:37.816Z,69.04
2019-03-25T10:04:37.576Z,68.94
2019-03-25T10:05:37.850Z,68.94
2019-03-25T10:06:37.614Z,68.94
2019-03-25T10:07:37.892Z,69.04
2019-03-25T10:08:37.651Z,69.04
2019-03-25T10:09:37.930Z,68.94
2019-03-25T10:10:37.953Z,69.04
2019-03-25T10:11:37.707Z,69.23
2019-03-25T10:12:37.989Z,69.23
2019-03-25T10:13:37.741Z,69.23
2019-03-25T10:14:38.024Z,69.13
2019-03-25T10:15:37.778Z,69.23
2019-03-25T10:16:38.063Z,69.23
2019-03-25T10:17:37.818Z,69.23
2019-03-25T10:18:37.836Z,69.6
2019-03-25T10:19:37.854Z,69.32
2019-03-25T10:20:38.135Z,69.13
2019-03-25T10:21:37.890Z,68.84
2019-03-25T10:22:38.177Z,69.13
2019-03-25T10:23:37.930Z,69.32
2019-03-25T10:24:38.210Z,68.75
2019-03-25T10:25:38.244Z,69.42
2019-03-25T10:26:37.992Z,68.75
2019-03-25T10:27:38.269Z,68.84
2019-03-25T10:28:50.075Z,69.42
2019-03-25T10:29:38.042Z,68.65
2019-03-25T10:30:38.321Z,68.56
2019-03-25T10:31:38.086Z,68.75
2019-03-25T10:32:38.097Z,68.65
2019-03-25T10:33:38.121Z,68.56
2019-03-25T10:34:38.139Z,68.46
2019-03-25T10:35:38.416Z,68.27
2019-03-25T10:36:38.174Z,68.27
2019-03-25T10:37:38.192Z,68.94
2019-03-25T10:38:38.474Z,68.46
2019-03-25T10:39:38.239Z,68.46
2019-03-25T10:40:38.249Z,68.65
2019-03-25T10:41:40.962Z,69.04
2019-03-25T10:42:38.558Z,69.23
2019-03-25T10:43:38.305Z,68.75
2019-03-25T10:44:38.329Z,69.42
2019-03-25T10:45:38.344Z,68.75
2019-03-25T10:46:38.364Z,69.04
2019-03-25T10:47:38.386Z,68.75
2019-03-25T10:48:38.665Z,68.65
2019-03-25T10:49:38.429Z,69.13
2019-03-25T10:50:38.438Z,69.04
2019-03-25T10:51:38.722Z,69.32
2019-03-25T10:52:38.475Z,69.23
2019-03-25T10:53:38.835Z,69.23
2019-03-25T10:54:38.913Z,69.13
2019-03-25T10:55:38.533Z,69.04
2019-03-25T10:56:39.655Z,68.84
2019-03-25T10:57:38.838Z,68.84
2019-03-25T10:58:38.856Z,69.04
2019-03-25T10:59:38.868Z,69.13
2019-03-25T11:00:38.889Z,69.13
2019-03-25T11:01:38.648Z,69.23
2019-03-25T11:02:38.670Z,69.6
2019-03-25T11:03:38.948Z,69.42
2019-03-25T11:04:38.966Z,69.42
2019-03-25T11:05:38.723Z,69.32
2019-03-25T11:06:39.005Z,69.51
2019-03-25T11:07:38.987Z,69.51
2019-03-25T11:08:39.047Z,69.79
2019-03-25T11:09:39.063Z,69.42
2019-03-25T11:10:39.084Z,69.7
2019-03-25T11:11:39.111Z,69.79
2019-03-25T11:12:39.114Z,69.6
2019-03-25T11:13:38.870Z,69.99
2019-03-25T11:14:39.152Z,69.89
2019-03-25T11:15:38.908Z,69.79
2019-03-25T11:16:38.940Z,69.23
2019-03-25T11:17:38.952Z,69.32
2019-03-25T11:18:39.227Z,69.23
2019-03-25T11:19:38.990Z,68.84
2019-03-25T11:20:39.005Z,69.13
2019-03-25T11:21:39.027Z,69.04
2019-03-25T11:22:39.056Z,68.75
2019-03-25T11:23:39.059Z,69.04
2019-03-25T11:24:39.093Z,69.04
2019-03-25T11:25:39.363Z,69.23
2019-03-25T11:26:39.379Z,68.84
2019-03-25T11:27:39.134Z,68.56
2019-03-25T11:28:39.157Z,68.27
2019-03-25T11:29:39.173Z,68.37
2019-03-25T11:30:39.459Z,69.04
2019-03-25T11:31:39.220Z,69.04
2019-03-25T11:32:39.497Z,68.59
2019-03-25T11:33:39.566Z,68.94
2019-03-25T11:34:39.272Z,68.94
2019-03-25T11:35:39.294Z,68.98
2019-03-25T11:36:39.569Z,68.84
2019-03-25T11:37:39.328Z,68.75
2019-03-25T11:38:39.611Z,68.56
2019-03-25T11:39:39.628Z,69.13
2019-03-25T11:40:39.386Z,69.23
2019-03-25T11:41:39.433Z,68.94
2019-03-25T11:42:39.425Z,69.13
2019-03-25T11:43:39.446Z,69.13
2019-03-25T11:44:39.721Z,69.32
2019-03-25T11:45:39.743Z,69.23
2019-03-25T11:46:39.502Z,69.32
2019-03-25T11:47:39.515Z,69.51
2019-03-25T11:48:39.801Z,69.79
2019-03-25T11:49:39.559Z,69.89
2019-03-25T11:50:39.572Z,69.79
2019-03-25T11:51:39.857Z,69.51
2019-03-25T11:52:39.619Z,69.6
2019-03-25T11:53:39.892Z,69.6
2019-03-25T11:54:39.646Z,69.6
2019-03-25T11:55:39.673Z,69.6
2019-03-25T11:56:39.952Z,69.7
2019-03-25T11:57:39.712Z,70.08
2019-03-25T11:58:39.988Z,70.08
2019-03-25T11:59:40.011Z,70.08
2019-03-25T12:00:39.760Z,70.27
2019-03-25T12:01:40.045Z,70.08
2019-03-25T12:02:39.804Z,70.37
2019-03-25T12:03:39.833Z,70.27
2019-03-25T12:04:39.882Z,70.47
2019-03-25T12:05:40.744Z,70.27
2019-03-25T12:06:39.874Z,70.37
2019-03-25T12:07:39.938Z,70.37
2019-03-25T12:08:39.917Z,70.27
2019-03-25T12:09:41.588Z,69.79
2019-03-25T12:10:40.212Z,69.6
2019-03-25T12:11:39.973Z,69.89
2019-03-25T12:12:40.252Z,69.79
2019-03-25T12:13:40.006Z,69.6
2019-03-25T12:14:40.287Z,69.32
2019-03-25T12:15:40.306Z,69.42
2019-03-25T12:16:40.060Z,69.04
2019-03-25T12:17:40.085Z,68.84
2019-03-25T12:18:40.361Z,69.13
2019-03-25T12:19:40.383Z,69.04
2019-03-25T12:20:40.409Z,69.13
2019-03-25T12:21:40.418Z,69.51
2019-03-25T12:22:40.179Z,69.42
2019-03-25T12:23:40.195Z,69.89
2019-03-25T12:24:40.476Z,69.51
2019-03-25T12:25:40.495Z,70.37
2019-03-25T12:26:40.517Z,70.27
2019-03-25T12:27:40.673Z,69.99
2019-03-25T12:28:40.290Z,70.27
2019-03-25T12:29:40.569Z,70.37
2019-03-25T12:30:40.328Z,70.37
2019-03-25T12:31:40.605Z,70.56
2019-03-25T12:32:40.629Z,70.56
2019-03-25T12:33:40.909Z,70.37
2019-03-25T12:34:40.405Z,70.37
2019-03-25T12:35:40.423Z,70.37
2019-03-25T12:36:40.703Z,70.37
2019-03-25T12:37:40.458Z,70.75
2019-03-25T12:38:40.741Z,70.27
2019-03-25T12:39:40.495Z,70.18
2019-03-25T12:40:40.512Z,70.27
2019-03-25T12:41:40.541Z,70.56
2019-03-25T12:42:40.553Z,70.84
2019-03-25T12:43:40.572Z,70.75
2019-03-25T12:44:40.852Z,70.18
2019-03-25T12:45:40.918Z,70.18
2019-03-25T12:46:40.628Z,69.99
2019-03-25T12:47:40.910Z,70.27
2019-03-25T12:48:40.668Z,70.18
2019-03-25T12:49:40.680Z,70.27
2019-03-25T12:50:40.962Z,70.27
2019-03-25T12:51:40.727Z,70.27
2019-03-25T12:52:40.741Z,70.27
2019-03-25T12:53:40.759Z,70.18
2019-03-25T12:54:40.781Z,70.31
2019-03-25T12:55:40.797Z,70.4
2019-03-25T12:56:41.082Z,70.27